Time;durP1;ratioP1;P1;durP2;ratioP2;P2;SDS_P1;SDS_P2;PMS_P1;PMS_P2;Temp;Humidity;BMP_temperature;BMP_pressure;BME280_temperature;BME280_humidity;BME280_pressure;Samples;Min_cycle;Max_cycle;Signal;HPM_P1;HPM_P2
2022/03/07 00:10:47;;;;;;;7.80;7.00;;;;;;;;;;5026201;28;20034;-56
2022/03/07 00:17:08;;;;;;;8.13;6.87;;;;;;;;;;4966930;29;20592;-56
2022/03/07 00:23:23;;;;;;;7.47;6.73;;;;;;;;;;5073746;28;20032;-54
2022/03/07 00:25:59;;;;;;;8.67;6.23;;;;;;;;;;5088648;28;20035;-54
2022/03/07 00:29:13;;;;;;;11.87;7.53;;;;;;;;;;5088181;28;20029;-55
2022/03/07 00:40:53;;;;;;;11.93;8.40;;;;;;;;;;5086945;28;20543;-57
2022/03/07 00:43:45;;;;;;;8.33;5.37;;;;;;;;;;5105112;28;20048;-57
2022/03/07 00:46:21;;;;;;;9.43;7.13;;;;;;;;;;5084317;28;20067;-56
2022/03/07 00:49:09;;;;;;;8.53;7.33;;;;;;;;;;5109280;28;20028;-55
2022/03/07 00:51:59;;;;;;;8.03;7.03;;;;;;;;;;5109749;28;20035;-57
2022/03/07 00:54:58;;;;;;;7.40;5.97;;;;;;;;;;5025504;28;20045;-55
2022/03/07 00:57:54;;;;;;;6.27;5.67;;;;;;;;;;4966597;29;20251;-57
2022/03/07 01:07:01;;;;;;;5.43;4.40;;;;;;;;;;5053456;28;20475;-56
2022/03/07 01:09:50;;;;;;;7.20;5.07;;;;;;;;;;5064118;28;20083;-57
2022/03/07 01:21:46;;;;;;;8.73;6.70;;;;;;;;;;5063864;28;20048;-57
2022/03/07 01:24:30;;;;;;;7.87;5.83;;;;;;;;;;4999418;28;20030;-52
2022/03/07 01:27:11;;;;;;;5.50;4.20;;;;;;;;;;5042562;28;20380;-55
2022/03/07 01:29:52;;;;;;;7.60;6.20;;;;;;;;;;5043642;28;20041;-56
2022/03/07 01:32:23;;;;;;;5.83;4.20;;;;;;;;;;5044096;28;20034;-56
2022/03/07 01:35:35;;;;;;;7.97;6.17;;;;;;;;;;5043798;28;20053;-57
2022/03/07 01:38:10;;;;;;;6.53;5.93;;;;;;;;;;5043682;28;20029;-57
2022/03/07 01:44:14;;;;;;;7.93;5.83;;;;;;;;;;4993340;28;20107;-55
2022/03/07 01:47:14;;;;;;;7.17;5.43;;;;;;;;;;5086890;28;20057;-55
2022/03/07 01:52:55;;;;;;;6.40;4.83;;;;;;;;;;5087844;28;20062;-55
2022/03/07 01:55:39;;;;;;;6.53;4.85;;;;;;;;;;5106427;28;20024;-56
2022/03/07 01:58:30;;;;;;;;;;;;;;;;;;;;;
2022/03/07 02:01:11;;;;;;;6.47;4.93;;;;;;;;;;5105826;28;20066;-55
2022/03/07 02:03:40;;;;;;;;;;;;;;;;;;5086724;28;20078;-54
2022/03/07 02:06:18;;;;;;;6.23;4.77;;;;;;;;;;5105136;28;20396;-56
2022/03/07 02:09:36;;;;;;;4.73;4.17;;;;;;;;;;5104981;28;20024;-56
2022/03/07 02:15:14;;;;;;;6.13;4.83;;;;;;;;;;5104699;28;20046;-56
2022/03/07 02:18:09;;;;;;;;;;;;;;;;;;;;;
2022/03/07 02:21:20;;;;;;;5.37;4.77;;;;;;;;;;5100920;28;20131;-56
2022/03/07 02:36:45;;;;;;;13.03;4.90;;;;;;;;;;5011916;28;20553;-57
2022/03/07 02:39:15;;;;;;;12.15;5.18;;;;;;;;;;5022558;28;20064;-54
2022/03/07 02:50:58;;;;;;;6.77;5.60;;;;;;;;;;5108741;28;20043;-56
2022/03/07 02:59:45;;;;;;;6.43;4.63;;;;;;;;;;5026289;28;20041;-57
2022/03/07 03:02:39;;;;;;;6.00;4.57;;;;;;;;;;5096474;28;20036;-54
2022/03/07 03:05:15;;;;;;;6.27;5.53;;;;;;;;;;5108153;28;20020;-57
2022/03/07 03:07:43;;;;;;;6.90;5.50;;;;;;;;;;5107745;28;20081;-55
2022/03/07 03:10:22;;;;;;;7.53;5.60;;;;;;;;;;5108200;28;20032;-57
2022/03/07 03:13:09;;;;;;;5.57;5.00;;;;;;;;;;5107954;28;20032;-57
2022/03/07 03:15:45;;;;;;;5.50;4.87;;;;;;;;;;5108120;28;20047;-56
2022/03/07 03:18:43;;;;;;;6.17;5.07;;;;;;;;;;5088856;28;20074;-56
2022/03/07 03:21:27;;;;;;;;;;;;;;;;;;;;;
2022/03/07 03:24:20;;;;;;;7.97;5.80;;;;;;;;;;5060602;28;20124;-57
2022/03/07 03:27:15;;;;;;;;;;;;;;;;;;;;;
2022/03/07 03:32:49;;;;;;;6.57;5.90;;;;;;;;;;5107585;28;20027;-56
2022/03/07 03:35:41;;;;;;;;;;;;;;;;;;;;;
2022/03/07 03:38:52;;;;;;;;;;;;;;;;;;;;;
2022/03/07 03:47:39;;;;;;;;;;;;;;;;;;;;;
2022/03/07 03:50:16;;;;;;;8.93;6.50;;;;;;;;;;5102844;28;20091;-58
2022/03/07 03:55:48;;;;;;;5.67;4.57;;;;;;;;;;5107018;28;20036;-56
2022/03/07 04:01:33;;;;;;;7.97;5.67;;;;;;;;;;5107618;28;20040;-56
2022/03/07 04:04:20;;;;;;;;;;;;;;;;;;;;;
2022/03/07 04:06:52;;;;;;;7.07;4.93;;;;;;;;;;5107357;28;20104;-57
2022/03/07 04:09:45;;;;;;;6.10;4.90;;;;;;;;;;5089300;28;20054;-57
2022/03/07 04:12:32;;;;;;;8.27;6.43;;;;;;;;;;5103459;28;20036;-56
2022/03/07 04:18:20;;;;;;;5.63;4.03;;;;;;;;;;5107338;28;20093;-55
2022/03/07 04:24:01;;;;;;;5.47;4.97;;;;;;;;;;5106446;28;20040;-56
2022/03/07 04:26:40;;;;;;;5.73;4.80;;;;;;;;;;5106996;28;20061;-56
2022/03/07 04:29:28;;;;;;;6.37;5.70;;;;;;;;;;5107402;28;20020;-57
2022/03/07 04:32:36;;;;;;;6.87;5.87;;;;;;;;;;5088200;28;20047;-57
2022/03/07 04:35:32;;;;;;;6.80;6.10;;;;;;;;;;5107160;28;20527;-57
2022/03/07 04:38:14;;;;;;;;;;;;;;;;;;;;;
2022/03/07 04:41:28;;;;;;;8.67;6.13;;;;;;;;;;5103422;28;20533;-55
2022/03/07 04:47:21;;;;;;;10.03;6.13;;;;;;;;;;5106985;28;20039;-58
2022/03/07 04:50:12;;;;;;;6.93;5.20;;;;;;;;;;5105527;28;20040;-57
2022/03/07 04:52:51;;;;;;;8.23;6.03;;;;;;;;;;5106342;28;20028;-57
2022/03/07 04:55:40;;;;;;;6.57;5.13;;;;;;;;;;5083520;28;20043;-57
2022/03/07 05:01:34;;;;;;;7.10;5.83;;;;;;;;;;5105981;28;20096;-57
2022/03/07 05:07:49;;;;;;;7.87;5.60;;;;;;;;;;5041859;28;20045;-56
2022/03/07 05:10:37;;;;;;;13.00;7.40;;;;;;;;;;5039976;28;20132;-56
2022/03/07 05:13:07;;;;;;;7.47;6.70;;;;;;;;;;5049222;28;20042;-57
2022/03/07 05:15:52;;;;;;;;;;;;;;;;;;;;;
2022/03/07 05:18:37;;;;;;;6.17;5.23;;;;;;;;;;5084289;28;20088;-57
2022/03/07 05:21:17;;;;;;;11.07;6.60;;;;;;;;;;5104077;28;20020;-57
2022/03/07 05:24:39;;;;;;;5.57;5.07;;;;;;;;;;5104253;28;20049;-57
2022/03/07 05:27:34;;;;;;;7.10;6.30;;;;;;;;;;5021311;28;20546;-55
2022/03/07 05:30:51;;;;;;;8.80;7.50;;;;;;;;;;5005570;28;20034;-57
2022/03/07 05:33:28;;;;;;;9.10;5.37;;;;;;;;;;4971287;28;20505;-54
2022/03/07 05:36:17;;;;;;;8.30;6.10;;;;;;;;;;4973559;28;20035;-55
2022/03/07 05:39:25;;;;;;;;;;;;;;;;;;;;;
2022/03/07 05:44:56;;;;;;;6.33;4.70;;;;;;;;;;5012074;28;20561;-56
2022/03/07 05:51:01;;;;;;;8.07;6.50;;;;;;;;;;4999934;28;20055;-58
2022/03/07 05:57:04;;;;;;;4.33;3.73;;;;;;;;;;5091925;28;20465;-57
2022/03/07 05:59:54;;;;;;;7.23;6.43;;;;;;;;;;5077154;28;20160;-55
2022/03/07 06:02:43;;;;;;;12.73;9.18;;;;;;;;;;5077221;28;20362;-56
2022/03/07 06:05:35;;;;;;;13.13;7.87;;;;;;;;;;5076514;28;20024;-58
2022/03/07 06:08:30;;;;;;;10.90;5.30;;;;;;;;;;5076827;28;20358;-58
2022/03/07 06:11:14;;;;;;;9.23;8.30;;;;;;;;;;5076564;28;20379;-58
2022/03/07 06:14:07;;;;;;;6.00;4.20;;;;;;;;;;5094985;28;20347;-58
2022/03/07 06:17:07;;;;;;;5.77;5.23;;;;;;;;;;4995960;28;20515;-58
2022/03/07 06:19:39;;;;;;;9.30;6.00;;;;;;;;;;5085396;28;20032;-58
2022/03/07 06:22:25;;;;;;;;;;;;;;;;;;;;;
2022/03/07 06:30:57;;;;;;;8.13;6.80;;;;;;;;;;5094680;28;20051;-57
2022/03/07 06:33:34;;;;;;;8.70;5.73;;;;;;;;;;5095294;28;20330;-58
2022/03/07 06:36:29;;;;;;;8.57;5.97;;;;;;;;;;5075702;28;20466;-58
2022/03/07 06:39:04;;;;;;;7.73;6.17;;;;;;;;;;5095661;28;20040;-57
2022/03/07 06:50:43;;;;;;;6.23;5.63;;;;;;;;;;5051663;28;20386;-57
2022/03/07 06:53:28;;;;;;;10.77;8.13;;;;;;;;;;5074997;28;20715;-57
2022/03/07 06:56:06;;;;;;;7.20;6.43;;;;;;;;;;5094957;28;20408;-57
2022/03/07 06:58:46;;;;;;;6.27;5.37;;;;;;;;;;5095653;28;20395;-57
2022/03/07 07:01:51;;;;;;;12.05;7.03;;;;;;;;;;5080828;28;20116;-58
2022/03/07 07:04:25;;;;;;;7.17;6.10;;;;;;;;;;5076787;28;20092;-56
2022/03/07 07:07:03;;;;;;;7.33;6.57;;;;;;;;;;5075743;28;20500;-57
2022/03/07 07:12:52;;;;;;;8.55;6.43;;;;;;;;;;5093911;28;20547;-58
2022/03/07 07:18:24;;;;;;;8.23;5.83;;;;;;;;;;5093559;28;20539;-56
2022/03/07 07:21:29;;;;;;;6.50;5.70;;;;;;;;;;5094490;28;20028;-57
2022/03/07 07:24:27;;;;;;;7.67;6.60;;;;;;;;;;5094253;28;20462;-58
2022/03/07 07:30:51;;;;;;;;;;;;;;;;;;;;;
2022/03/07 07:33:30;;;;;;;6.93;6.23;;;;;;;;;;5097102;28;20376;-56
2022/03/07 07:36:08;;;;;;;9.47;6.90;;;;;;;;;;5097529;28;20504;-58
2022/03/07 07:42:08;;;;;;;9.97;6.93;;;;;;;;;;5085807;28;20029;-58
2022/03/07 07:44:47;;;;;;;6.33;5.43;;;;;;;;;;5096764;28;20052;-58
2022/03/07 07:53:42;;;;;;;7.07;5.37;;;;;;;;;;5063531;28;20434;-59
2022/03/07 07:56:18;;;;;;;4.95;4.25;;;;;;;;;;5109746;28;20028;-57
2022/03/07 07:58:54;;;;;;;13.27;7.27;;;;;;;;;;5109065;28;20031;-58
2022/03/07 08:04:39;;;;;;;8.70;7.10;;;;;;;;;;5077662;28;20068;-58
2022/03/07 08:07:15;;;;;;;9.43;7.23;;;;;;;;;;5109548;28;20042;-58
2022/03/07 08:10:20;;;;;;;8.77;7.23;;;;;;;;;;5109481;28;20024;-56
2022/03/07 08:13:14;;;;;;;8.10;6.37;;;;;;;;;;5108263;28;20024;-59
2022/03/07 08:15:57;;;;;;;7.53;6.80;;;;;;;;;;5109263;28;20028;-58
2022/03/07 08:18:39;;;;;;;10.07;6.60;;;;;;;;;;5042124;28;20052;-59
2022/03/07 08:21:27;;;;;;;7.83;5.60;;;;;;;;;;5109806;28;20040;-58
2022/03/07 08:24:20;;;;;;;8.43;6.40;;;;;;;;;;5109201;28;20043;-59
2022/03/07 08:27:14;;;;;;;;;;;;;;;;;;;;;
2022/03/07 08:29:58;;;;;;;7.87;6.20;;;;;;;;;;5105917;28;20059;-58
2022/03/07 08:32:53;;;;;;;9.07;6.40;;;;;;;;;;5110600;28;20028;-57
2022/03/07 08:35:36;;;;;;;7.67;6.43;;;;;;;;;;5110149;28;20470;-58
2022/03/07 08:38:21;;;;;;;9.53;7.30;;;;;;;;;;5110379;28;20024;-57
2022/03/07 08:47:13;;;;;;;10.07;7.90;;;;;;;;;;5107274;28;20089;-58
2022/03/07 08:50:00;;;;;;;7.77;6.27;;;;;;;;;;5107511;28;20119;-58
2022/03/07 08:52:38;;;;;;;8.27;5.73;;;;;;;;;;5107868;28;20101;-59
2022/03/07 08:55:41;;;;;;;11.83;6.10;;;;;;;;;;5107764;28;20028;-58
2022/03/07 09:06:55;;;;;;;7.37;5.53;;;;;;;;;;5096281;28;20074;-58
2022/03/07 09:09:37;;;;;;;7.75;5.65;;;;;;;;;;5096043;28;20132;-59
2022/03/07 09:12:32;;;;;;;7.50;6.77;;;;;;;;;;5077807;28;20032;-58
2022/03/07 09:15:10;;;;;;;9.63;7.03;;;;;;;;;;5089873;28;20032;-58
2022/03/07 09:24:08;;;;;;;7.40;6.67;;;;;;;;;;5013797;28;20034;-59
2022/03/07 09:26:48;;;;;;;;;;;;;;;;;;;;;
2022/03/07 09:29:18;;;;;;;7.50;5.72;;;;;;;;;;5095213;28;20385;-58
2022/03/07 09:31:57;;;;;;;5.40;4.82;;;;;;;;;;5076929;28;20114;-59
2022/03/07 09:37:20;;;;;;;9.70;7.17;;;;;;;;;;5095191;28;20384;-59
2022/03/07 09:40:13;;;;;;;8.27;6.53;;;;;;;;;;5061395;28;20040;-58
2022/03/07 09:43:02;;;;;;;8.97;7.07;;;;;;;;;;5075624;28;20401;-58
2022/03/07 09:45:48;;;;;;;9.13;6.90;;;;;;;;;;5095576;28;20456;-59
2022/03/07 09:54:27;;;;;;;10.27;5.93;;;;;;;;;;5089995;28;20036;-58
2022/03/07 10:00:10;;;;;;;6.23;5.63;;;;;;;;;;5090351;28;20042;-58
2022/03/07 10:02:36;;;;;;;;;;;;;;;;;;5095510;28;20024;-56
2022/03/07 10:05:32;;;;;;;;;;;;;;;;;;;;;
2022/03/07 10:08:02;;;;;;;7.57;6.77;;;;;;;;;;5094885;28;20024;-57
2022/03/07 10:10:45;;;;;;;8.80;7.57;;;;;;;;;;5094519;28;20038;-58
2022/03/07 10:16:08;;;;;;;9.63;7.60;;;;;;;;;;5094851;28;20405;-57
2022/03/07 10:18:41;;;;;;;8.33;6.23;;;;;;;;;;5074818;28;20058;-56
2022/03/07 10:24:07;;;;;;;10.87;7.87;;;;;;;;;;5094313;28;20047;-58
2022/03/07 10:30:12;;;;;;;10.80;7.80;;;;;;;;;;4992154;28;20034;-57
2022/03/07 10:33:06;;;;;;;8.47;6.83;;;;;;;;;;5093494;28;20481;-57
2022/03/07 10:35:42;;;;;;;7.67;6.87;;;;;;;;;;5089098;28;20047;-57
2022/03/07 10:44:55;;;;;;;8.77;6.87;;;;;;;;;;5094502;28;20501;-57
2022/03/07 10:47:36;;;;;;;8.43;6.63;;;;;;;;;;5093729;28;20048;-57
2022/03/07 10:50:11;;;;;;;;;;;;;;;;;;5096428;28;20032;-57
2022/03/07 10:52:54;;;;;;;10.00;7.47;;;;;;;;;;5095099;28;20370;-57
2022/03/07 10:58:36;;;;;;;10.30;7.47;;;;;;;;;;5079503;28;20504;-57
2022/03/07 11:01:27;;;;;;;9.27;7.37;;;;;;;;;;5094746;28;20461;-56
2022/03/07 11:04:02;;;;;;;9.82;7.60;;;;;;;;;;5052236;28;20115;-57
2022/03/07 11:06:46;;;;;;;9.93;7.27;;;;;;;;;;5053978;28;20119;-57
2022/03/07 11:09:55;;;;;;;;;;;;;;;;;;;;;
2022/03/07 11:12:38;;;;;;;9.30;8.10;;;;;;;;;;5055493;28;20108;-56
2022/03/07 11:15:22;;;;;;;;;;;;;;;;;;;;;
2022/03/07 11:18:04;;;;;;;12.80;8.20;;;;;;;;;;5056491;28;20111;-57
2022/03/07 11:20:43;;;;;;;9.60;8.53;;;;;;;;;;5054674;28;20494;-57
2022/03/07 11:23:31;;;;;;;10.10;7.77;;;;;;;;;;5056109;28;20025;-57
2022/03/07 11:26:32;;;;;;;10.20;8.60;;;;;;;;;;5040591;28;20407;-57
2022/03/07 11:29:08;;;;;;;9.52;7.22;;;;;;;;;;5055661;28;20033;-57
2022/03/07 11:35:16;;;;;;;9.65;8.30;;;;;;;;;;5036722;28;20060;-56
2022/03/07 11:38:08;;;;;;;19.33;9.23;;;;;;;;;;4989030;28;20065;-57
2022/03/07 11:44:00;;;;;;;9.23;6.82;;;;;;;;;;4995066;28;20111;-55
2022/03/07 11:49:35;;;;;;;10.50;7.50;;;;;;;;;;5036759;28;20127;-55
2022/03/07 11:52:18;;;;;;;12.32;8.95;;;;;;;;;;5054167;28;20456;-57
2022/03/07 11:55:14;;;;;;;8.85;7.40;;;;;;;;;;5054284;28;20067;-57
2022/03/07 11:58:01;;;;;;;9.05;7.35;;;;;;;;;;5035471;28;20486;-57
2022/03/07 12:00:53;;;;;;;9.35;7.43;;;;;;;;;;5035435;28;20502;-57
2022/03/07 12:03:48;;;;;;;;;;;;;;;;;;;;;
2022/03/07 12:06:18;;;;;;;8.68;7.63;;;;;;;;;;4975155;28;20038;-58
2022/03/07 12:08:52;;;;;;;6.37;5.47;;;;;;;;;;4975484;28;20432;-56
2022/03/07 12:11:53;;;;;;;9.37;8.20;;;;;;;;;;4990339;28;20277;-57
2022/03/07 12:14:35;;;;;;;8.32;7.50;;;;;;;;;;4974672;28;20382;-57
2022/03/07 12:17:27;;;;;;;11.27;7.47;;;;;;;;;;4975162;28;20062;-56
2022/03/07 12:20:31;;;;;;;8.63;7.20;;;;;;;;;;4986358;28;20443;-55
2022/03/07 12:23:16;;;;;;;7.03;6.33;;;;;;;;;;5053853;28;20143;-57
2022/03/07 12:26:18;;;;;;;7.85;6.38;;;;;;;;;;5054136;28;20136;-58
2022/03/07 12:29:41;;;;;;;8.97;7.60;;;;;;;;;;5049653;28;20048;-56
2022/03/07 12:32:16;;;;;;;7.93;6.00;;;;;;;;;;5036544;28;20036;-58
2022/03/07 12:38:06;;;;;;;;;;;;;;;;;;;;;
2022/03/07 12:41:14;;;;;;;9.00;8.07;;;;;;;;;;5080296;28;20054;-57
2022/03/07 12:43:54;;;;;;;8.77;7.27;;;;;;;;;;5012803;28;20037;-56
2022/03/07 12:46:39;;;;;;;9.20;6.85;;;;;;;;;;4997277;28;20026;-57
2022/03/07 12:49:31;;;;;;;9.93;6.93;;;;;;;;;;5013609;28;20054;-57
2022/03/07 12:52:20;;;;;;;10.65;6.68;;;;;;;;;;5014269;28;20030;-57
2022/03/07 12:55:10;;;;;;;9.40;7.73;;;;;;;;;;5013660;28;20026;-57
2022/03/07 12:57:59;;;;;;;17.17;8.05;;;;;;;;;;5001971;28;20273;-57
2022/03/07 13:00:37;;;;;;;10.63;8.27;;;;;;;;;;5013706;28;20543;-57
2022/03/07 13:06:10;;;;;;;;;;;;;;;;;;;;;
2022/03/07 13:08:54;;;;;;;9.45;7.28;;;;;;;;;;5083494;28;20028;-54
2022/03/07 13:11:54;;;;;;;10.32;7.50;;;;;;;;;;5076861;28;20390;-57
2022/03/07 13:14:35;;;;;;;9.45;8.13;;;;;;;;;;5073922;28;20032;-56
2022/03/07 13:17:24;;;;;;;7.43;6.72;;;;;;;;;;5095881;28;20028;-55
2022/03/07 13:20:24;;;;;;;8.75;7.00;;;;;;;;;;5094914;28;20032;-58
2022/03/07 13:23:14;;;;;;;9.85;7.43;;;;;;;;;;5071285;28;20090;-54
2022/03/07 13:26:04;;;;;;;9.20;7.50;;;;;;;;;;5095679;28;20032;-57
2022/03/07 13:29:02;;;;;;;9.38;6.82;;;;;;;;;;5074151;28;20047;-57
2022/03/07 13:35:05;;;;;;;11.10;7.28;;;;;;;;;;5086574;28;20029;-58
2022/03/07 13:37:55;;;;;;;8.15;6.85;;;;;;;;;;5077212;28;20418;-54
2022/03/07 13:40:24;;;;;;;8.15;7.03;;;;;;;;;;5075818;28;20043;-56
2022/03/07 13:46:20;;;;;;;7.07;6.05;;;;;;;;;;5094886;28;20078;-57
2022/03/07 13:49:12;;;;;;;7.45;6.32;;;;;;;;;;5094220;28;20051;-57
2022/03/07 13:51:56;;;;;;;9.67;7.93;;;;;;;;;;5051821;28;20563;-57
2022/03/07 13:54:56;;;;;;;14.63;7.15;;;;;;;;;;5051962;28;20478;-58
2022/03/07 13:57:35;;;;;;;10.60;7.88;;;;;;;;;;5022483;28;20479;-57
2022/03/07 14:00:28;;;;;;;10.18;6.75;;;;;;;;;;5051493;28;20078;-57
2022/03/07 14:03:19;;;;;;;12.32;7.88;;;;;;;;;;5024414;28;20036;-57
2022/03/07 14:09:05;;;;;;;8.23;6.47;;;;;;;;;;4975882;28;20081;-57
2022/03/07 14:11:54;;;;;;;9.65;7.47;;;;;;;;;;4992930;28;20038;-57
2022/03/07 14:20:30;;;;;;;9.90;6.90;;;;;;;;;;4992912;28;20042;-58
2022/03/07 14:23:36;;;;;;;12.85;7.32;;;;;;;;;;4992471;28;20381;-57
2022/03/07 14:26:16;;;;;;;8.45;6.97;;;;;;;;;;4898593;29;20040;-58
2022/03/07 14:32:08;;;;;;;7.80;6.18;;;;;;;;;;4973512;28;20042;-56
2022/03/07 14:34:40;;;;;;;10.68;7.35;;;;;;;;;;4995861;28;20038;-56
2022/03/07 14:37:25;;;;;;;12.38;8.35;;;;;;;;;;5076704;28;20378;-58
2022/03/07 14:40:37;;;;;;;10.45;7.85;;;;;;;;;;5092965;28;20043;-57
2022/03/07 14:43:36;;;;;;;8.80;7.32;;;;;;;;;;5093383;28;20036;-58
2022/03/07 14:46:37;;;;;;;14.15;7.90;;;;;;;;;;5076491;28;20032;-59
2022/03/07 14:49:09;;;;;;;11.18;7.97;;;;;;;;;;5097189;28;20382;-58
2022/03/07 14:54:51;;;;;;;17.17;10.20;;;;;;;;;;5097824;28;20070;-58
2022/03/07 14:57:35;;;;;;;10.65;8.13;;;;;;;;;;5097608;28;20036;-58
2022/03/07 15:00:12;;;;;;;9.95;7.53;;;;;;;;;;5098392;28;20142;-58
2022/03/07 15:05:50;;;;;;;9.27;7.35;;;;;;;;;;5092650;28;20031;-56
2022/03/07 15:12:00;;;;;;;12.85;9.45;;;;;;;;;;5097298;28;20031;-58
2022/03/07 15:14:55;;;;;;;9.03;8.13;;;;;;;;;;5073291;28;20050;-58
2022/03/07 15:17:42;;;;;;;10.43;8.65;;;;;;;;;;5097405;28;20031;-58
2022/03/07 15:20:14;;;;;;;9.70;8.10;;;;;;;;;;5095473;28;20063;-58
2022/03/07 15:25:35;;;;;;;11.77;8.63;;;;;;;;;;5093771;28;20020;-58
2022/03/07 15:28:02;;;;;;;11.30;8.40;;;;;;;;;;5097288;28;20034;-58
2022/03/07 15:33:52;;;;;;;10.38;9.00;;;;;;;;;;5090053;28;20056;-58
2022/03/07 15:39:39;;;;;;;11.87;8.37;;;;;;;;;;5085936;28;20028;-57
2022/03/07 15:42:13;;;;;;;9.30;6.75;;;;;;;;;;5079478;28;20091;-58
2022/03/07 15:45:16;;;;;;;11.43;8.77;;;;;;;;;;5078571;28;20485;-58
2022/03/07 15:47:51;;;;;;;14.93;8.75;;;;;;;;;;5096475;28;20457;-56
2022/03/07 15:50:32;;;;;;;8.93;7.32;;;;;;;;;;5096800;28;20040;-58
2022/03/07 15:56:33;;;;;;;9.80;8.82;;;;;;;;;;5092856;28;20032;-57
2022/03/07 15:59:00;;;;;;;10.65;8.02;;;;;;;;;;5076914;28;20118;-57
2022/03/07 16:05:01;;;;;;;10.77;8.87;;;;;;;;;;5008606;28;20522;-58
2022/03/07 16:07:35;;;;;;;10.52;8.68;;;;;;;;;;5078059;28;20419;-59
2022/03/07 16:10:39;;;;;;;11.05;9.13;;;;;;;;;;5096744;28;20031;-59
2022/03/07 16:16:39;;;;;;;13.65;8.75;;;;;;;;;;5096529;28;20054;-59
2022/03/07 16:25:07;;;;;;;13.77;9.38;;;;;;;;;;5084648;28;20059;-59
2022/03/07 16:27:55;;;;;;;11.63;8.60;;;;;;;;;;5096017;28;20522;-58
2022/03/07 16:30:53;;;;;;;;;;;;;;;;;;;;;
2022/03/07 16:36:41;;;;;;;13.77;10.63;;;;;;;;;;5095986;28;20050;-58
2022/03/07 16:39:18;;;;;;;9.47;8.33;;;;;;;;;;5087714;28;20036;-58
2022/03/07 16:41:44;;;;;;;10.32;8.73;;;;;;;;;;5078260;28;20408;-58
2022/03/07 16:44:20;;;;;;;10.30;8.03;;;;;;;;;;5076748;28;20371;-57
2022/03/07 16:46:59;;;;;;;9.60;8.33;;;;;;;;;;5067192;28;20032;-57
2022/03/07 16:49:48;;;;;;;11.13;8.17;;;;;;;;;;5076871;28;20048;-58
2022/03/07 16:52:29;;;;;;;14.03;8.40;;;;;;;;;;5082561;28;20032;-58
2022/03/07 16:55:01;;;;;;;12.10;9.55;;;;;;;;;;5094769;28;20028;-58
2022/03/07 16:57:59;;;;;;;13.10;10.03;;;;;;;;;;5077640;28;20107;-57
2022/03/07 17:06:04;;;;;;;10.80;9.70;;;;;;;;;;5095714;28;20035;-58
2022/03/07 17:09:03;;;;;;;13.70;8.17;;;;;;;;;;5088886;28;20032;-58
2022/03/07 17:11:42;;;;;;;11.37;8.67;;;;;;;;;;5094806;28;20028;-58
2022/03/07 17:14:38;;;;;;;11.80;10.10;;;;;;;;;;5095844;28;20025;-58
2022/03/07 17:17:41;;;;;;;10.30;9.10;;;;;;;;;;5076002;28;20060;-58
2022/03/07 17:26:11;;;;;;;11.77;8.75;;;;;;;;;;5094715;28;20089;-57
2022/03/07 17:28:45;;;;;;;13.90;10.17;;;;;;;;;;5095168;28;20016;-58
2022/03/07 17:31:32;;;;;;;13.37;9.50;;;;;;;;;;5094817;28;20046;-58
2022/03/07 17:34:53;;;;;;;;;;;;;;;;;;;;;
2022/03/07 17:37:35;;;;;;;;;;;;;;;;;;;;;
2022/03/07 17:40:18;;;;;;;11.03;9.87;;;;;;;;;;5094572;28;20485;-58
2022/03/07 17:43:00;;;;;;;11.10;9.13;;;;;;;;;;5075728;28;20036;-55
2022/03/07 17:45:51;;;;;;;11.30;9.73;;;;;;;;;;5094898;28;20028;-58
2022/03/07 17:48:20;;;;;;;9.95;8.88;;;;;;;;;;5094019;28;20036;-57
2022/03/07 17:50:55;;;;;;;13.13;9.10;;;;;;;;;;5094141;28;20435;-57
2022/03/07 17:53:24;;;;;;;11.93;10.53;;;;;;;;;;5075942;28;20039;-57
2022/03/07 17:56:10;;;;;;;;;;;;;;;;;;;;;
2022/03/07 17:58:40;;;;;;;12.13;9.43;;;;;;;;;;5090984;28;20137;-57
2022/03/07 18:01:39;;;;;;;10.03;8.93;;;;;;;;;;5094549;28;20477;-58
2022/03/07 18:04:29;;;;;;;11.90;9.80;;;;;;;;;;5094159;28;20121;-57
2022/03/07 18:07:44;;;;;;;13.13;10.37;;;;;;;;;;5078683;28;20584;-57
2022/03/07 18:10:40;;;;;;;10.60;9.50;;;;;;;;;;5075184;28;20036;-56
2022/03/07 18:13:07;;;;;;;11.70;10.30;;;;;;;;;;5093539;28;20031;-58
2022/03/07 18:15:38;;;;;;;13.87;11.27;;;;;;;;;;5076312;28;20098;-58
2022/03/07 18:21:17;;;;;;;15.50;10.37;;;;;;;;;;5012432;28;20040;-58
2022/03/07 18:24:23;;;;;;;;;;;;;;;;;;;;;
2022/03/07 18:27:14;;;;;;;12.63;9.63;;;;;;;;;;5007241;28;20049;-58
2022/03/07 18:30:16;;;;;;;11.47;9.60;;;;;;;;;;5012491;28;20448;-58
2022/03/07 18:32:53;;;;;;;13.83;10.23;;;;;;;;;;5053509;28;20458;-58
2022/03/07 18:36:04;;;;;;;;;;;;;;;;;;;;;
2022/03/07 18:38:39;;;;;;;13.60;10.23;;;;;;;;;;5094364;28;20028;-58
2022/03/07 18:44:12;;;;;;;12.90;10.30;;;;;;;;;;5085704;28;20059;-54
2022/03/07 18:46:56;;;;;;;;;;;;;;;;;;;;;
2022/03/07 18:52:24;;;;;;;12.27;10.03;;;;;;;;;;5093154;28;20036;-57
2022/03/07 18:55:08;;;;;;;11.30;10.10;;;;;;;;;;5075668;28;20466;-58
2022/03/07 18:58:18;;;;;;;13.40;10.93;;;;;;;;;;5075089;28;20028;-56
2022/03/07 19:03:51;;;;;;;12.73;10.33;;;;;;;;;;5030709;28;20554;-57
2022/03/07 19:06:47;;;;;;;14.47;10.80;;;;;;;;;;5080248;28;20040;-57
2022/03/07 19:09:19;;;;;;;14.07;10.37;;;;;;;;;;5093512;28;20039;-58
2022/03/07 19:12:03;;;;;;;10.77;9.63;;;;;;;;;;5092938;28;20032;-58
2022/03/07 19:14:29;;;;;;;11.97;10.23;;;;;;;;;;5093385;28;20032;-56
2022/03/07 19:16:59;;;;;;;13.27;9.90;;;;;;;;;;5093318;28;20074;-59
2022/03/07 19:19:54;;;;;;;14.43;10.73;;;;;;;;;;5093429;28;20040;-58
2022/03/07 19:22:22;;;;;;;11.17;10.07;;;;;;;;;;5075332;28;20301;-57
2022/03/07 19:24:52;;;;;;;10.30;8.63;;;;;;;;;;5075294;28;20036;-55
2022/03/07 19:27:34;;;;;;;;;;;;;;;;;;;;;
2022/03/07 19:30:13;;;;;;;16.70;11.67;;;;;;;;;;5086059;28;20042;-56
2022/03/07 19:36:15;;;;;;;13.97;12.20;;;;;;;;;;5081949;28;20055;-57
2022/03/07 19:42:07;;;;;;;12.77;10.50;;;;;;;;;;5087517;28;20040;-58
2022/03/07 19:44:44;;;;;;;12.30;10.83;;;;;;;;;;5097496;28;20020;-58
2022/03/07 19:47:20;;;;;;;13.70;10.50;;;;;;;;;;5078823;28;20429;-58
2022/03/07 19:50:15;;;;;;;14.27;10.87;;;;;;;;;;5095721;28;20131;-56
2022/03/07 19:55:43;;;;;;;11.97;10.67;;;;;;;;;;5096740;28;20032;-55
2022/03/07 19:58:45;;;;;;;15.93;11.03;;;;;;;;;;5080188;28;20127;-57
2022/03/07 20:01:13;;;;;;;15.67;10.43;;;;;;;;;;5094587;28;20064;-55
2022/03/07 20:07:09;;;;;;;22.50;11.00;;;;;;;;;;5088632;28;20428;-57
2022/03/07 20:09:47;;;;;;;13.83;10.40;;;;;;;;;;5096245;28;20028;-57
2022/03/07 20:12:14;;;;;;;13.97;10.93;;;;;;;;;;5079109;28;20118;-57
2022/03/07 20:14:49;;;;;;;16.27;12.20;;;;;;;;;;5095991;28;20020;-56
2022/03/07 20:17:15;;;;;;;17.93;11.03;;;;;;;;;;5079589;28;20028;-57
2022/03/07 20:19:41;;;;;;;15.73;11.97;;;;;;;;;;5096036;28;20044;-56
2022/03/07 20:22:16;;;;;;;11.37;10.17;;;;;;;;;;5078365;28;20458;-56
2022/03/07 20:25:15;;;;;;;12.77;11.47;;;;;;;;;;5096405;28;20026;-56
2022/03/07 20:27:47;;;;;;;13.67;10.33;;;;;;;;;;5078275;28;20036;-55
2022/03/07 20:30:19;;;;;;;12.80;10.77;;;;;;;;;;5078132;28;20040;-56
2022/03/07 20:33:06;;;;;;;11.03;9.87;;;;;;;;;;5097037;28;20066;-57
2022/03/07 20:35:42;;;;;;;15.33;11.93;;;;;;;;;;5079792;28;20460;-56
2022/03/07 20:38:22;;;;;;;16.63;12.67;;;;;;;;;;5097222;28;20033;-57
2022/03/07 20:43:59;;;;;;;12.53;10.93;;;;;;;;;;5088632;28;20381;-58
2022/03/07 20:46:45;;;;;;;12.33;10.50;;;;;;;;;;5096711;28;20052;-56
2022/03/07 20:49:35;;;;;;;12.60;11.13;;;;;;;;;;5084694;28;20504;-56
2022/03/07 20:52:20;;;;;;;13.57;10.40;;;;;;;;;;5096836;28;20426;-57
2022/03/07 20:55:01;;;;;;;10.83;9.70;;;;;;;;;;5096302;28;20063;-55
2022/03/07 20:57:43;;;;;;;18.10;11.80;;;;;;;;;;5095579;28;20024;-55
2022/03/07 21:03:20;;;;;;;17.08;11.52;;;;;;;;;;5071203;28;20028;-55
2022/03/07 21:06:22;;;;;;;15.80;12.60;;;;;;;;;;5095663;28;20457;-57
2022/03/07 21:18:19;;;;;;;;;;;;;;;;;;;;;
2022/03/07 21:20:48;;;;;;;18.60;14.37;;;;;;;;;;5095293;28;20372;-57
2022/03/07 21:29:53;;;;;;;15.80;11.47;;;;;;;;;;5095720;28;20040;-56
2022/03/07 21:32:36;;;;;;;14.70;11.70;;;;;;;;;;5094731;28;20058;-57
2022/03/07 21:42:01;;;;;;;;;;;;;;;;;;;;;
2022/03/07 21:44:40;;;;;;;14.53;11.67;;;;;;;;;;5010073;28;20033;-57
2022/03/07 21:47:28;;;;;;;18.07;12.40;;;;;;;;;;5018917;28;20061;-58
2022/03/07 21:50:29;;;;;;;;;;;;;;;;;;;;;
2022/03/07 21:53:27;;;;;;;13.33;11.20;;;;;;;;;;5091091;28;20028;-57
2022/03/07 21:56:23;;;;;;;13.87;11.23;;;;;;;;;;5076261;28;20089;-57
2022/03/07 21:59:09;;;;;;;19.80;13.30;;;;;;;;;;5095041;28;20408;-58
2022/03/07 22:04:54;;;;;;;12.77;11.50;;;;;;;;;;5101427;28;20500;-57
2022/03/07 22:10:35;;;;;;;14.40;10.90;;;;;;;;;;5049500;28;20068;-58
2022/03/07 22:13:05;;;;;;;13.50;12.10;;;;;;;;;;5104582;28;20107;-56
2022/03/07 22:15:46;;;;;;;20.97;12.97;;;;;;;;;;5104638;28;20028;-57
2022/03/07 22:18:33;;;;;;;13.33;10.47;;;;;;;;;;5105451;28;20032;-58
2022/03/07 22:21:18;;;;;;;13.43;11.07;;;;;;;;;;5104694;28;20036;-57
2022/03/07 22:24:06;;;;;;;;;;;;;;;;;;;;;
2022/03/07 22:35:36;;;;;;;13.18;10.00;;;;;;;;;;5078653;28;20540;-58
2022/03/07 22:38:11;;;;;;;16.80;13.17;;;;;;;;;;5065003;28;20056;-57
2022/03/07 22:46:58;;;;;;;11.40;10.20;;;;;;;;;;5074503;28;20051;-57
2022/03/07 22:49:25;;;;;;;15.13;11.73;;;;;;;;;;5081710;28;20136;-57
2022/03/07 22:54:45;;;;;;;11.83;10.50;;;;;;;;;;5082871;28;20058;-57
2022/03/07 22:57:21;;;;;;;14.17;11.13;;;;;;;;;;5082929;28;20036;-57
2022/03/07 23:00:05;;;;;;;12.87;11.10;;;;;;;;;;5082612;28;20032;-57